Latest Weather Observations for Beaudesert AWS

IDQ60801

Issued at 9:35 pm EST Monday 21 April 2014 (issued every 30 minutes, with the page automatically refreshed every 10 minutes)

About weather observations | Map of weather stations | Latest weather observations for QLD | Other Formats
Station Details ID: 040983 Name: BEAUDESERT DRUMLEY STREET Lat: -27.97 Lon: 152.99 Height: 47.81 m
Data from the previous 72 hours. | See also: Recent months at Beaudesert AWS
Date/Time
EST
Temp
°C
App
Temp
°C
Dew
Point
Rel
Hum
%
Delta-T
°C
Wind Press
QNH
hPa
Press
MSL
hPa
Rain
since 9 am
mm
Dir
 
Spd
km/h
Gust
km/h
Spd
kts
Gust
kts
21/09:30pm 17.6 18.5 13.9 79 2.1 E 2 4 1 2 1021.1 - 0.0
21/09:00pm 18.7 20.3 14.8 78 2.3 ESE 0 0 0 0 1020.8 1020.7 0.0
21/08:30pm 19.4 21.0 14.9 75 2.6 CALM 0 0 0 0 1020.7 - 0.0
21/08:00pm 19.4 20.7 14.0 71 3.1 SE 0 2 0 1 1020.5 1020.4 0.0
21/07:30pm 20.4 21.5 13.6 65 3.9 CALM 0 0 0 0 1020.2 - 0.0
21/07:00pm 22.6 22.7 14.4 60 4.8 NNE 7 13 4 7 1019.6 1019.5 0.0
21/06:30pm 22.8 22.7 13.3 55 5.5 NNE 6 9 3 5 1019.2 - 0.0
21/06:00pm 23.8 23.3 12.8 50 6.3 NNE 7 13 4 7 1018.8 1018.7 0.0
21/05:30pm 24.9 23.9 12.2 45 7.3 NNE 9 13 5 7 1018.3 - 0.0
21/05:00pm 26.6 26.2 11.1 38 8.8 NNE 4 7 2 4 1017.8 1017.7 0.0
21/04:30pm 27.4 26.9 10.6 35 9.5 NNE 4 9 2 5 1017.7 - 0.0
21/04:00pm 28.2 27.2 10.4 33 10.0 NNW 6 7 3 4 1017.6 1017.5 0.0
21/03:30pm 28.1 26.9 10.3 33 10.0 NW 7 11 4 6 1017.6 - 0.0
21/03:00pm 28.2 27.6 11.7 36 9.5 WNW 6 9 3 5 1017.6 1017.5 0.0
21/02:30pm 28.3 27.4 10.5 33 10.1 NNW 6 11 3 6 1017.8 - 0.0
21/02:00pm 27.8 26.7 10.5 34 9.8 N 7 17 4 9 1018.1 1018.0 0.0
21/01:30pm 27.6 27.6 13.5 41 8.4 NW 6 13 3 7 1018.4 - 0.0
21/01:00pm 26.7 27.1 13.8 45 7.6 N 4 15 2 8 1018.8 1018.7 0.0
21/12:30pm 26.5 26.4 13.9 45 7.5 W 7 13 4 7 1019.2 - 0.0
21/12:00pm 26.4 26.5 13.9 46 7.4 N 6 11 3 6 1019.8 1019.7 0.0
21/11:30am 25.6 25.9 15.0 52 6.4 W 7 13 4 7 1020.3 - 0.0
21/11:00am 25.1 25.3 14.3 51 6.4 W 6 13 3 7 1020.7 1020.6 0.0
21/10:30am 25.1 26.2 14.6 52 6.3 WSW 2 11 1 6 1021.0 - 0.0
21/10:00am 24.2 25.6 15.4 58 5.3 SW 2 4 1 2 1021.3 1021.2 0.0
21/09:30am 22.0 23.8 15.4 66 3.9 CALM 0 0 0 0 1021.6 - 0.0
21/09:00am 19.7 21.4 15.1 75 2.7 CALM 0 4 0 2 1021.6 1021.5 0.0
21/08:30am 17.7 17.9 14.2 80 2.0 SSW 6 7 3 4 1021.6 - 0.0
21/08:00am 15.8 16.4 13.1 84 1.5 SSW 2 4 1 2 1021.5 1021.4 0.0
21/07:30am 14.4 14.7 12.1 86 1.2 S 2 6 1 3 1021.2 - 0.0
21/07:00am 13.7 14.4 12.1 90 0.9 CALM 0 4 0 2 1021.0 1020.9 0.0
21/06:30am 12.6 12.2 11.2 91 0.7 E 4 6 2 3 1020.5 - 0.0
21/06:00am 12.7 12.7 11.3 91 0.7 SSE 2 6 1 3 1020.4 1020.3 0.0
21/05:30am 13.0 13.2 11.7 92 0.7 SE 2 4 1 2 1019.9 - 0.0
21/05:00am 12.6 12.2 11.2 91 0.7 ESE 4 4 2 2 1019.6 1019.5 0.0
21/04:30am 12.4 12.2 10.6 89 0.9 SSW 2 6 1 3 1019.2 - 0.0
21/04:00am 13.4 13.5 11.6 89 1.0 S 2 4 1 2 1019.0 1018.9 0.0
21/03:30am 13.6 13.4 11.8 89 1.0 ESE 4 6 2 3 1018.8 - 0.0
21/03:00am 13.8 14.4 11.8 88 1.1 SE 0 0 0 0 1018.8 1018.7 0.0
21/02:30am 14.2 14.5 12.1 87 1.1 SSE 2 4 1 2 1018.7 - 0.0
21/02:00am 14.3 14.5 12.0 86 1.2 ESE 2 4 1 2 1018.7 1018.6 0.0
21/01:30am 14.9 14.9 12.4 85 1.4 SSE 4 6 2 3 1018.8 - 0.0
21/01:00am 15.2 15.3 12.7 85 1.4 SE 4 6 2 3 1018.9 1018.8 0.0
21/12:30am 15.2 15.3 12.7 85 1.4 SE 4 4 2 2 1019.0 - 0.0
21/12:00am 15.0 15.8 12.7 86 1.3 CALM 0 2 0 1 1019.0 1018.9 0.0
 
Date/Time
EST
Temp
°C
App
Temp
°C
Dew
Point
Rel
Hum
%
Delta-T
°C
Wind Press
QNH
hPa
Press
MSL
hPa
Rain
since 9 am
mm
Dir
 
Spd
km/h
Gust
km/h
Spd
kts
Gust
kts
20/11:30pm 14.4 15.2 12.4 88 1.1 CALM 0 0 0 0 1018.9 - 0.0
20/11:00pm 14.3 15.0 12.3 88 1.1 CALM 0 0 0 0 1018.9 1018.8 0.0
20/10:30pm 14.4 15.0 11.9 85 1.3 CALM 0 0 0 0 1019.1 - 0.0
20/10:00pm 14.4 14.9 11.6 83 1.5 CALM 0 0 0 0 1019.0 1018.9 0.0
20/09:30pm 15.1 15.7 11.9 81 1.7 CALM 0 0 0 0 1018.9 - 0.0
20/09:00pm 15.5 15.9 11.3 76 2.3 CALM 0 0 0 0 1018.6 1018.5 0.0
20/08:30pm 16.1 16.6 11.5 74 2.5 CALM 0 0 0 0 1018.5 - 0.0
20/08:00pm 16.9 17.3 11.4 70 3.0 CALM 0 0 0 0 1018.3 1018.2 0.0
20/07:30pm 18.0 18.2 10.6 62 4.0 CALM 0 0 0 0 1017.9 - 0.0
20/07:00pm 20.5 20.0 10.6 53 5.4 ENE 4 7 2 4 1017.5 1017.4 0.0
20/06:30pm 21.4 20.3 9.9 48 6.2 ENE 6 9 3 5 1017.1 - 0.0
20/06:00pm 22.3 21.0 10.1 46 6.6 ENE 7 9 4 5 1016.7 1016.6 0.0
20/05:30pm 23.6 22.3 9.9 42 7.5 NE 7 13 4 7 1016.2 - 0.0
20/05:00pm 26.0 25.0 8.9 34 9.3 NNE 4 6 2 3 1015.9 1015.8 0.0
20/04:30pm 26.6 25.1 8.6 32 9.8 NNE 6 9 3 5 1015.5 - 0.0
20/04:00pm 27.2 26.4 9.5 33 9.8 N 4 9 2 5 1015.5 1015.4 0.0
20/03:30pm 27.2 26.0 9.5 33 9.8 ENE 6 9 3 5 1015.4 - 0.0
20/03:00pm 27.2 26.3 9.1 32 9.9 ENE 4 6 2 3 1015.4 1015.3 0.0
20/02:30pm 27.8 27.1 10.1 33 9.9 NW 4 9 2 5 1015.6 - 0.0
20/02:00pm 27.5 26.0 9.3 32 10.1 N 7 17 4 9 1015.7 1015.6 0.0
20/01:30pm 27.1 25.8 9.9 34 9.6 WNW 7 13 4 7 1015.9 - 0.0
20/01:00pm 27.1 25.3 7.0 28 10.6 SSE 6 9 3 5 1016.1 1016.0 0.0
20/12:30pm 26.7 25.4 9.1 33 9.7 NE 6 9 3 5 1016.5 - 0.0
20/12:00pm 26.1 25.5 11.8 41 8.2 W 6 13 3 7 1017.1 1017.0 0.0
20/11:30am 25.1 24.7 13.0 47 7.0 WNW 7 15 4 8 1017.6 - 0.0
20/11:00am 25.6 25.8 14.1 49 6.8 NNE 6 15 3 8 1018.0 1017.9 0.0
20/10:30am 24.7 25.0 13.3 49 6.7 NW 4 9 2 5 1018.5 - 0.0
20/10:00am 23.9 24.8 14.0 54 5.8 WNW 2 4 1 2 1018.7 1018.6 0.0
20/09:30am 21.8 22.9 14.7 64 4.2 SSW 2 4 1 2 1018.7 - 0.0
20/09:00am 19.3 20.0 13.5 69 3.3 SSW 2 6 1 3 1018.9 1018.8 0.0
20/08:30am 17.3 17.4 12.6 74 2.6 SSW 4 6 2 3 1018.8 - 0.0
20/08:00am 15.5 15.9 11.3 76 2.3 CALM 0 0 0 0 1018.7 1018.6 0.0
20/07:30am 13.9 13.9 11.2 84 1.4 SSW 2 4 1 2 1018.5 - 0.0
20/07:00am 12.8 12.9 10.3 85 1.3 CALM 0 4 0 2 1018.2 1018.1 0.0
20/06:30am 11.6 11.6 9.7 88 1.0 CALM 0 2 0 1 1017.9 - 0.0
20/06:00am 11.8 11.8 9.9 88 1.0 CALM 0 2 0 1 1017.5 1017.4 0.0
20/05:30am 11.4 11.2 9.1 86 1.2 CALM 0 2 0 1 1017.1 - 0.0
20/05:00am 12.0 11.6 9.9 87 1.1 SE 2 4 1 2 1016.8 1016.7 0.0
20/04:30am 12.0 11.3 9.9 87 1.1 SSE 4 6 2 3 1016.6 - 0.0
20/04:00am 12.5 12.1 9.9 84 1.3 SSE 2 4 1 2 1016.5 1016.4 0.0
20/03:30am 12.6 12.3 10.1 85 1.3 ESE 2 4 1 2 1016.3 - 0.0
20/03:00am 12.7 12.4 10.1 84 1.3 SE 2 4 1 2 1016.4 1016.3 0.0
20/02:30am 13.0 12.8 10.4 84 1.4 SE 2 4 1 2 1016.5 - 0.0
20/02:00am 13.4 13.6 10.6 83 1.5 CALM 0 0 0 0 1016.4 1016.3 0.0
20/01:30am 13.3 13.4 10.3 82 1.6 CALM 0 0 0 0 1016.6 - 0.0
20/01:00am 13.6 13.4 10.4 81 1.7 SSE 2 4 1 2 1016.7 1016.6 0.0
20/12:30am 13.7 13.2 10.7 82 1.6 SSE 4 4 2 2 1016.8 - 0.0
20/12:00am 13.9 13.8 10.9 82 1.6 SSE 2 4 1 2 1016.9 1016.8 0.0
 
Date/Time
EST
Temp
°C
App
Temp
°C
Dew
Point
Rel
Hum
%
Delta-T
°C
Wind Press
QNH
hPa
Press
MSL
hPa
Rain
since 9 am
mm
Dir
 
Spd
km/h
Gust
km/h
Spd
kts
Gust
kts
19/11:30pm 14.2 13.9 11.5 84 1.4 SE 4 4 2 2 1017.0 - 0.0
19/11:00pm 13.2 13.4 10.6 84 1.4 CALM 0 0 0 0 1016.9 1016.8 0.0
19/10:30pm 13.3 13.2 10.7 84 1.4 SSE 2 4 1 2 1016.9 - 0.0
19/10:00pm 13.5 13.6 10.1 80 1.8 CALM 0 0 0 0 1016.8 1016.7 0.0
19/09:30pm 14.4 14.7 11.0 80 1.8 CALM 0 0 0 0 1016.8 - 0.0
19/09:00pm 14.9 14.8 10.9 77 2.1 E 2 4 1 2 1016.6 1016.5 0.0
19/08:30pm 16.1 16.5 11.1 72 2.7 CALM 0 0 0 0 1016.3 - 0.0
19/08:00pm 16.7 17.0 11.0 69 3.1 CALM 0 0 0 0 1016.0 1015.9 0.0
19/07:30pm 18.4 18.9 11.7 65 3.7 CALM 0 0 0 0 1015.7 - 0.0
19/07:00pm 19.3 19.4 11.6 61 4.2 SE 2 6 1 3 1015.1 1015.0 0.0
19/06:30pm 20.7 20.6 10.8 53 5.4 NNE 2 6 1 3 1014.6 - 0.0
19/06:00pm 21.8 21.0 11.2 51 5.9 NE 6 7 3 4 1014.2 1014.1 0.0
19/05:30pm 23.0 21.5 10.4 45 6.9 ENE 9 13 5 7 1013.8 - 0.0
19/05:00pm 25.4 23.6 7.1 31 9.6 ENE 6 7 3 4 1013.4 1013.2 0.0
19/04:30pm 26.3 24.4 6.9 29 10.2 ENE 6 7 3 4 1013.0 - 0.0
19/04:00pm 26.7 25.3 7.2 29 10.4 E 4 7 2 4 1013.0 1012.8 0.0
19/03:30pm 27.4 26.3 6.8 27 10.9 NE 2 6 1 3 1013.0 - 0.0
19/03:00pm 27.1 25.3 7.0 28 10.7 E 6 11 3 6 1012.9 1012.7 0.0
19/02:30pm 27.2 25.4 8.1 30 10.3 ESE 7 20 4 11 1013.0 - 0.0
19/02:00pm 26.6 24.6 7.1 29 10.3 S 7 11 4 6 1013.2 1013.0 0.0
19/01:30pm 26.4 23.6 6.9 29 10.3 S 11 15 6 8 1013.4 - 0.0
19/01:00pm 26.2 23.9 7.3 30 10.0 S 9 20 5 11 1013.8 1013.6 0.0
19/12:30pm 26.2 23.7 8.2 32 9.7 SSW 11 17 6 9 1014.3 - 0.0
19/12:00pm 25.6 22.8 8.6 34 9.2 SSW 13 20 7 11 1014.8 1014.7 0.0
19/11:30am 25.1 22.5 7.7 33 9.2 S 11 19 6 10 1015.4 - 0.0
19/11:00am 25.0 22.2 8.5 35 8.9 SSW 13 17 7 9 1016.0 1015.9 0.0
19/10:30am 24.0 23.8 10.3 42 7.6 S 2 11 1 6 1016.3 - 0.0
19/10:00am 22.9 22.6 11.6 49 6.3 SW 4 9 2 5 1016.6 1016.5 0.0
19/09:30am 22.0 22.5 14.1 61 4.6 S 4 7 2 4 1016.9 - 0.0
19/09:00am 19.7 20.8 14.7 73 2.9 SSW 2 4 1 2 1017.3 1017.2 0.0
19/08:30am 17.5 19.0 14.6 83 1.7 CALM 0 2 0 1 1017.4 - 0.0
19/08:00am 15.4 15.6 13.2 87 1.2 SSW 4 6 2 3 1017.3 1017.2 0.0
19/07:30am 13.8 14.5 12.2 90 0.9 CALM 0 0 0 0 1017.2 - 0.0
19/07:00am 12.9 13.5 11.8 93 0.6 CALM 0 0 0 0 1017.0 1016.9 0.0
19/06:30am 12.1 12.4 10.8 92 0.7 CALM 0 0 0 0 1016.7 - 0.0
19/06:00am 12.4 12.8 11.1 92 0.7 CALM 0 6 0 3 1016.5 1016.4 0.0
19/05:30am 11.5 11.5 9.8 89 0.9 CALM 0 0 0 0 1016.4 - 0.0
19/05:00am 13.4 14.0 12.0 91 0.8 CALM 0 0 0 0 1016.0 1015.9 0.0
19/04:30am 13.3 13.8 11.7 90 0.9 CALM 0 0 0 0 1015.8 - 0.0
19/04:00am 13.6 13.8 12.0 90 0.9 S 2 6 1 3 1015.6 1015.5 0.0
19/03:30am 13.9 14.2 12.1 89 1.0 SSE 2 4 1 2 1015.6 - 0.0
19/03:00am 14.1 14.8 12.1 88 1.1 CALM 0 2 0 1 1015.7 1015.6 0.0
19/02:30am 14.5 14.9 12.4 87 1.1 SE 2 7 1 4 1015.8 - 0.0
19/02:00am 14.9 15.0 12.8 87 1.2 ESE 4 6 2 3 1015.8 1015.7 0.0
19/01:30am 15.2 15.7 12.9 86 1.3 SE 2 4 1 2 1015.9 - 0.0
19/01:00am 15.2 15.4 12.9 86 1.3 SE 4 6 2 3 1016.0 1015.9 0.0
19/12:30am 15.4 16.0 13.1 86 1.3 SE 2 6 1 3 1016.1 - 0.0
19/12:00am 15.9 16.2 13.4 85 1.4 SSE 4 7 2 4 1016.1 1016.0 0.0
 
Date/Time
EST
Temp
°C
App
Temp
°C
Dew
Point
Rel
Hum
%
Delta-T
°C
Wind Press
QNH
hPa
Press
MSL
hPa
Rain
since 9 am
mm
Dir
 
Spd
km/h
Gust
km/h
Spd
kts
Gust
kts
18/11:30pm 16.4 17.0 14.2 87 1.3 S 4 6 2 3 1016.2 - 0.0
18/11:00pm 16.4 17.7 14.2 87 1.3 CALM 0 0 0 0 1016.3 1016.2 0.0
18/10:30pm 16.6 17.9 14.1 85 1.4 CALM 0 0 0 0 1016.4 - 0.0
18/10:00pm 16.9 17.9 14.4 85 1.4 SSE 2 6 1 3 1016.5 1016.4 0.0

Other Formats:

Comma delimited format used in spreadsheet applications
http://www.bom.gov.au/fwo/IDQ60801/IDQ60801.95575.axf

JavaScript Object Notation format (JSON) in row-major order
http://www.bom.gov.au/fwo/IDQ60801/IDQ60801.95575.json